Kazan International Airport
UWKD : now visible

Airfield :











YOU CAN JOIN US ON...

 
LOGIN :

Register | Disclaimer

   EN    FR    IT 

 









Legend :    VFR   Marginal VFR   IFR   Intensive IFR   Very Intensive IFR
Visi :
Ceiling :
>= 8 km
>= 3000ft
5 to 8 km
1000 to 3000 ft
1500m to 5 km
500 to 1000 ft
800 to 1500m
200 to 500 ft
< 800m
< 200 ft
Symbols :   Thunderstorms  Fog  Heavy snow  Heavy precipitations  Wind > 20 kt






- Airport Elevation : 411 ft
- IATA code : KZN


UWKD - Kazan International

CURRENT METAR :
  • 090100Z 33006MPS CAVOK 00/M03 Q1011 R29/1/0060 NOSIG RMK QFE747/0996

EXPIRED METARs :
  • 090030Z 33005MPS CAVOK 01/M03 Q1010 R29/1/0060 NOSIG RMK QFE747/0996
  • 090000Z 31003MPS CAVOK 02/M02 Q1010 R29/1/0060 NOSIG RMK QFE746/0995
  • 082330Z 27002MPS CAVOK 02/M02 Q1010 R11/1/0060 NOSIG RMK QFE747/0996
  • 082300Z 00000MPS CAVOK 02/M02 Q1009 R11/1/0060 NOSIG RMK QFE747/0996
  • 082230Z VRB01MPS CAVOK 01/M02 Q1009 R11/1/0060 NOSIG RMK QFE747/0996
  • 082200Z 15003MPS CAVOK 02/M02 Q1009 R11/1/0060 NOSIG RMK QFE747/0996

TAF TAF UWKD
Valid from the 09 at 00:00 until the 10 at 00:00 UTC


082300Z 0900/0924 33003MPS 9999 BKN020 TX12/0911Z TN01/0900Z
BECMG 0911/0913 20005MPS



MET'MAP, your aeronautical weather chart ! - Copyright ORBIFLY December 2007 - Disclaimer

ORBIFLY MET'MAP TEAM :

Programming & Development : Alexandra Zaïnal
Concept & original design : Baudouin d'Aumeries
Assistance for programming : Marc-Olivier Méhu
Technical & hardware support : Manuel Goepfert

Contact : metmap@orbifly.com




SOURCES & CREDITS :

   NOAA       Earth
Advisory